Time;durP1;ratioP1;P1;durP2;ratioP2;P2;SDS_P1;SDS_P2;PMS_P1;PMS_P2;Temp;Humidity;BMP_temperature;BMP_pressure;BME280_temperature;BME280_humidity;BME280_pressure;Samples;Min_cycle;Max_cycle;Signal;HPM_P1;HPM_P2
2023/09/04 00:01:22;;;;;;;96.95;90.80;;;;;;;;;;5062856;28;20024;-65
2023/09/04 00:03:47;;;;;;;72.82;68.10;;;;;;;;;;5068221;28;20131;-64
2023/09/04 00:06:12;;;;;;;48.97;45.67;;;;;;;;;;5069628;28;20074;-65
2023/09/04 00:08:37;;;;;;;96.00;89.07;;;;;;;;;;5068899;28;20016;-64
2023/09/04 00:11:03;;;;;;;72.95;68.35;;;;;;;;;;5066369;28;20019;-64
2023/09/04 00:13:28;;;;;;;43.13;40.30;;;;;;;;;;5067055;28;20025;-64
2023/09/04 00:15:56;;;;;;;130.30;120.87;;;;;;;;;;5069161;28;20017;-64
2023/09/04 00:18:21;;;;;;;56.30;52.38;;;;;;;;;;5062785;28;20408;-65
2023/09/04 00:20:48;;;;;;;40.53;37.63;;;;;;;;;;5063439;28;20028;-64
2023/09/04 00:23:13;;;;;;;54.05;50.22;;;;;;;;;;5063634;28;20021;-64
2023/09/04 00:25:38;;;;;;;88.43;82.03;;;;;;;;;;5064572;28;20035;-65
2023/09/04 00:28:03;;;;;;;55.00;51.27;;;;;;;;;;5070841;28;20032;-64
2023/09/04 00:30:29;;;;;;;58.93;54.83;;;;;;;;;;5061628;28;20040;-65
2023/09/04 00:32:54;;;;;;;50.40;46.77;;;;;;;;;;5069609;28;20020;-65
2023/09/04 00:35:19;;;;;;;53.03;49.40;;;;;;;;;;5065543;28;20024;-65
2023/09/04 00:37:44;;;;;;;91.35;85.38;;;;;;;;;;5069411;28;20020;-65
2023/09/04 00:40:09;;;;;;;48.40;45.10;;;;;;;;;;5066876;28;20101;-65
2023/09/04 00:42:35;;;;;;;54.67;51.03;;;;;;;;;;5077080;28;20029;-65
2023/09/04 00:45:00;;;;;;;74.50;69.50;;;;;;;;;;5069074;28;20062;-65
2023/09/04 00:47:26;;;;;;;68.00;63.35;;;;;;;;;;5067683;28;20052;-64
2023/09/04 00:49:53;;;;;;;84.50;78.55;;;;;;;;;;5069077;28;20444;-65
2023/09/04 00:52:18;;;;;;;166.95;154.93;;;;;;;;;;5068687;28;20028;-65
2023/09/04 00:54:43;;;;;;;56.05;52.30;;;;;;;;;;5064528;28;20017;-65
2023/09/04 00:57:09;;;;;;;71.25;66.38;;;;;;;;;;5069024;28;20166;-64
2023/09/04 00:59:34;;;;;;;75.30;70.32;;;;;;;;;;5059093;28;20057;-64
2023/09/04 01:02:00;;;;;;;129.63;121.40;;;;;;;;;;5069252;28;20119;-64
2023/09/04 01:04:25;;;;;;;114.22;106.55;;;;;;;;;;5067783;28;20475;-65
2023/09/04 01:06:52;;;;;;;52.77;49.10;;;;;;;;;;5068087;28;20506;-65
2023/09/04 01:09:19;;;;;;;72.70;67.38;;;;;;;;;;5065315;28;20035;-65
2023/09/04 01:11:51;;;;;;;68.65;64.07;;;;;;;;;;5070423;28;20016;-65
2023/09/04 01:14:18;;;;;;;101.53;94.50;;;;;;;;;;5064736;28;20034;-64
2023/09/04 01:16:43;;;;;;;;;;;;;;;;;;5070361;28;20096;-64
2023/09/04 01:19:10;;;;;;;107.35;100.45;;;;;;;;;;5068468;28;19956;-64
2023/09/04 01:21:36;;;;;;;86.40;80.95;;;;;;;;;;5061999;28;20033;-64
2023/09/04 01:24:02;;;;;;;66.85;62.42;;;;;;;;;;5064776;28;20100;-64
2023/09/04 01:26:33;;;;;;;151.95;141.02;;;;;;;;;;5068525;28;20092;-65
2023/09/04 01:28:58;;;;;;;118.35;110.25;;;;;;;;;;5069744;28;20032;-64
2023/09/04 01:31:26;;;;;;;110.32;103.15;;;;;;;;;;5068559;28;20020;-65
2023/09/04 01:33:57;;;;;;;91.28;85.75;;;;;;;;;;5064309;28;20101;-64
2023/09/04 01:36:22;;;;;;;64.45;60.42;;;;;;;;;;5063131;28;20668;-65
2023/09/04 01:38:47;;;;;;;81.97;75.82;;;;;;;;;;5068313;28;20024;-64
2023/09/04 01:41:12;;;;;;;86.95;81.07;;;;;;;;;;5067637;28;20048;-64
2023/09/04 01:43:38;;;;;;;89.47;83.10;;;;;;;;;;5067421;28;20099;-64
2023/09/04 01:46:03;;;;;;;130.85;121.90;;;;;;;;;;5068026;28;20016;-64
2023/09/04 01:48:28;;;;;;;56.25;52.42;;;;;;;;;;5067743;28;20039;-64
2023/09/04 01:50:54;;;;;;;173.67;161.37;;;;;;;;;;5068815;28;20024;-64
2023/09/04 01:53:20;;;;;;;55.88;52.33;;;;;;;;;;5067902;28;20549;-64
2023/09/04 01:55:45;;;;;;;52.63;48.67;;;;;;;;;;5066667;28;20032;-64
2023/09/04 01:58:10;;;;;;;57.63;53.80;;;;;;;;;;5063679;28;20081;-64
2023/09/04 02:00:35;;;;;;;119.73;110.30;;;;;;;;;;5063300;28;20040;-65
2023/09/04 02:03:01;;;;;;;93.20;87.00;;;;;;;;;;5064970;28;20030;-66
2023/09/04 02:05:26;;;;;;;72.13;67.53;;;;;;;;;;5068506;28;20020;-65
2023/09/04 02:07:51;;;;;;;151.98;141.13;;;;;;;;;;5059548;28;20028;-64
2023/09/04 02:10:16;;;;;;;226.83;211.37;;;;;;;;;;5058977;28;20480;-64
2023/09/04 02:12:41;;;;;;;191.03;177.17;;;;;;;;;;5065579;28;20025;-64
2023/09/04 02:15:07;;;;;;;116.63;109.47;;;;;;;;;;5064150;28;20476;-64
2023/09/04 02:17:33;;;;;;;142.27;132.55;;;;;;;;;;5065695;28;20032;-65
2023/09/04 02:19:59;;;;;;;93.53;87.28;;;;;;;;;;5069656;28;20016;-65
2023/09/04 02:22:24;;;;;;;61.42;57.25;;;;;;;;;;5065407;28;20036;-64
2023/09/04 02:24:49;;;;;;;92.57;86.35;;;;;;;;;;5070052;28;20561;-64
2023/09/04 02:27:15;;;;;;;60.53;56.37;;;;;;;;;;5066824;28;20025;-65
2023/09/04 02:29:40;;;;;;;67.73;63.10;;;;;;;;;;5073623;28;20017;-64
2023/09/04 02:32:05;;;;;;;97.80;91.68;;;;;;;;;;5071710;28;20466;-65
2023/09/04 02:34:31;;;;;;;78.18;72.82;;;;;;;;;;5072665;28;20098;-65
2023/09/04 02:36:58;;;;;;;71.50;66.60;;;;;;;;;;5073455;28;20541;-64
2023/09/04 02:39:23;;;;;;;114.85;107.80;;;;;;;;;;5072784;28;20103;-64
2023/09/04 02:41:48;;;;;;;68.07;63.55;;;;;;;;;;5069565;28;20107;-64
2023/09/04 02:44:13;;;;;;;63.20;59.03;;;;;;;;;;5069680;28;20112;-65
2023/09/04 02:46:38;;;;;;;247.23;230.23;;;;;;;;;;5071530;28;20036;-64
2023/09/04 02:49:04;;;;;;;100.93;94.43;;;;;;;;;;5073560;28;20031;-64
2023/09/04 02:51:29;;;;;;;114.97;107.10;;;;;;;;;;5071713;28;20031;-64
2023/09/04 02:53:54;;;;;;;163.50;151.87;;;;;;;;;;5073133;28;20533;-64
2023/09/04 02:56:19;;;;;;;110.18;102.35;;;;;;;;;;5072565;28;20016;-64
2023/09/04 02:58:44;;;;;;;120.13;111.25;;;;;;;;;;5065403;28;20489;-64
2023/09/04 03:01:09;;;;;;;90.20;84.43;;;;;;;;;;5068623;28;20503;-64
2023/09/04 03:03:36;;;;;;;74.63;69.47;;;;;;;;;;5072330;28;20032;-63
2023/09/04 03:06:08;;;;;;;91.90;85.88;;;;;;;;;;5068970;28;20525;-64
2023/09/04 03:08:33;;;;;;;85.93;80.18;;;;;;;;;;5070370;28;20025;-64
2023/09/04 03:10:58;;;;;;;75.45;70.40;;;;;;;;;;5065232;28;20444;-64
2023/09/04 03:13:24;;;;;;;68.53;63.97;;;;;;;;;;5069429;28;20028;-64
2023/09/04 03:15:49;;;;;;;64.72;60.38;;;;;;;;;;5071497;28;20021;-64
2023/09/04 03:18:14;;;;;;;164.50;152.17;;;;;;;;;;5069704;28;20028;-63
2023/09/04 03:20:39;;;;;;;231.30;215.97;;;;;;;;;;5071381;28;20044;-64
2023/09/04 03:23:04;;;;;;;76.40;71.40;;;;;;;;;;5071024;28;20365;-63
2023/09/04 03:25:29;;;;;;;110.40;102.43;;;;;;;;;;5068431;28;20052;-64
2023/09/04 03:27:55;;;;;;;119.03;111.15;;;;;;;;;;5072255;28;20027;-64
2023/09/04 03:30:20;;;;;;;93.60;87.20;;;;;;;;;;5070528;28;20073;-63
2023/09/04 03:32:45;;;;;;;116.00;108.40;;;;;;;;;;5064641;28;20017;-63
2023/09/04 03:35:12;;;;;;;161.05;150.43;;;;;;;;;;5068674;28;20535;-64
2023/09/04 03:37:38;;;;;;;138.70;129.32;;;;;;;;;;5071053;28;20369;-63
2023/09/04 03:40:18;;;;;;;120.57;112.57;;;;;;;;;;5070652;28;20023;-63
2023/09/04 03:42:44;;;;;;;138.48;129.48;;;;;;;;;;5057893;28;20036;-63
2023/09/04 03:45:09;;;;;;;161.05;149.95;;;;;;;;;;5057427;28;20815;-63
2023/09/04 03:47:34;;;;;;;111.20;104.70;;;;;;;;;;5066589;28;20029;-64
2023/09/04 03:49:59;;;;;;;187.00;173.60;;;;;;;;;;5070846;28;20047;-64
2023/09/04 03:52:24;;;;;;;136.17;126.93;;;;;;;;;;5070766;28;20396;-65
2023/09/04 03:54:49;;;;;;;137.87;128.00;;;;;;;;;;5071770;28;20107;-65
2023/09/04 03:57:15;;;;;;;79.40;74.30;;;;;;;;;;5071546;28;20039;-63
2023/09/04 03:59:40;;;;;;;103.68;96.97;;;;;;;;;;5070426;28;20021;-65
2023/09/04 04:02:05;;;;;;;100.22;93.60;;;;;;;;;;5071114;28;20055;-65
2023/09/04 04:04:30;;;;;;;175.37;163.87;;;;;;;;;;5071857;28;20051;-65
2023/09/04 04:06:55;;;;;;;300.20;277.80;;;;;;;;;;5070962;28;20388;-65
2023/09/04 04:09:21;;;;;;;142.30;132.43;;;;;;;;;;5067854;28;20472;-63
2023/09/04 04:11:46;;;;;;;292.75;271.20;;;;;;;;;;5072308;28;20009;-64
2023/09/04 04:14:11;;;;;;;144.83;134.63;;;;;;;;;;5064154;28;20017;-63
2023/09/04 04:16:37;;;;;;;268.90;247.80;;;;;;;;;;5071719;28;20116;-62
2023/09/04 04:19:02;;;;;;;105.03;98.10;;;;;;;;;;5062871;28;20109;-63
2023/09/04 04:21:27;;;;;;;91.37;85.17;;;;;;;;;;5065537;28;20056;-63
2023/09/04 04:23:52;;;;;;;96.55;90.03;;;;;;;;;;5067067;28;20020;-63
2023/09/04 04:26:17;;;;;;;159.30;147.63;;;;;;;;;;5069278;28;20032;-66
2023/09/04 04:28:43;;;;;;;108.30;101.37;;;;;;;;;;5067132;28;20025;-63
2023/09/04 04:31:08;;;;;;;112.93;106.05;;;;;;;;;;5065123;28;20020;-64
2023/09/04 04:33:33;;;;;;;140.73;131.57;;;;;;;;;;5064770;28;20051;-65
2023/09/04 04:35:58;;;;;;;114.20;106.63;;;;;;;;;;5062716;28;20025;-65
2023/09/04 04:38:24;;;;;;;164.65;153.32;;;;;;;;;;5066391;28;20021;-63
2023/09/04 04:40:49;;;;;;;166.52;155.40;;;;;;;;;;5067211;28;20047;-65
2023/09/04 04:43:14;;;;;;;113.57;106.23;;;;;;;;;;5071782;28;20016;-62
2023/09/04 04:45:40;;;;;;;126.37;118.57;;;;;;;;;;5067202;28;20031;-63
2023/09/04 04:48:05;;;;;;;96.65;89.90;;;;;;;;;;5072066;28;20024;-65
2023/09/04 04:50:31;;;;;;;144.80;134.93;;;;;;;;;;5066073;28;20108;-65
2023/09/04 04:52:56;;;;;;;114.27;107.23;;;;;;;;;;5074843;28;20017;-64
2023/09/04 04:55:21;;;;;;;183.63;170.93;;;;;;;;;;5065640;28;20538;-64
2023/09/04 04:57:46;;;;;;;100.53;93.93;;;;;;;;;;5063894;28;20420;-65
2023/09/04 05:00:12;;;;;;;228.87;212.17;;;;;;;;;;5064734;28;20024;-65
2023/09/04 05:02:37;;;;;;;165.57;154.05;;;;;;;;;;5076261;28;20067;-64
2023/09/04 05:05:02;;;;;;;179.63;166.97;;;;;;;;;;5058477;28;20024;-65
2023/09/04 05:07:29;;;;;;;105.85;99.00;;;;;;;;;;5078394;28;20056;-64
2023/09/04 05:09:54;;;;;;;133.68;124.65;;;;;;;;;;5066804;28;20119;-65
2023/09/04 05:12:20;;;;;;;146.60;136.02;;;;;;;;;;5067762;28;20511;-65
2023/09/04 05:14:45;;;;;;;114.03;106.00;;;;;;;;;;5072005;28;20087;-65
2023/09/04 05:17:10;;;;;;;127.90;119.63;;;;;;;;;;5078237;28;20016;-65
2023/09/04 05:19:35;;;;;;;109.27;101.13;;;;;;;;;;5071673;28;20112;-65
2023/09/04 05:22:01;;;;;;;185.33;171.40;;;;;;;;;;5075189;28;20515;-64
2023/09/04 05:24:26;;;;;;;87.90;82.20;;;;;;;;;;5068631;28;20051;-65
2023/09/04 05:26:51;;;;;;;122.97;114.90;;;;;;;;;;5065302;28;20025;-64
2023/09/04 05:29:16;;;;;;;97.50;91.03;;;;;;;;;;5064866;28;20058;-65
2023/09/04 05:31:41;;;;;;;114.67;107.17;;;;;;;;;;5070596;28;20388;-65
2023/09/04 05:34:06;;;;;;;184.18;171.23;;;;;;;;;;5070822;28;20106;-64
2023/09/04 05:36:32;;;;;;;131.20;121.53;;;;;;;;;;5069282;28;20016;-65
2023/09/04 05:38:57;;;;;;;252.17;233.40;;;;;;;;;;5066656;28;20472;-63
2023/09/04 05:41:22;;;;;;;118.43;110.70;;;;;;;;;;5061374;28;20032;-63
2023/09/04 05:43:47;;;;;;;106.30;99.57;;;;;;;;;;5069440;28;20032;-63
2023/09/04 05:46:12;;;;;;;123.38;114.95;;;;;;;;;;5068583;28;20028;-63
2023/09/04 05:48:37;;;;;;;87.83;81.87;;;;;;;;;;5064509;28;20029;-64
2023/09/04 05:51:03;;;;;;;83.37;77.77;;;;;;;;;;5059621;28;20467;-63
2023/09/04 05:53:29;;;;;;;197.48;183.15;;;;;;;;;;5064011;28;20067;-63
2023/09/04 05:56:10;;;;;;;103.30;96.40;;;;;;;;;;5071667;28;20430;-63
2023/09/04 05:58:45;;;;;;;133.10;124.63;;;;;;;;;;5068662;28;20032;-63
2023/09/04 06:01:11;;;;;;;116.75;108.93;;;;;;;;;;5076974;28;20111;-60
2023/09/04 06:03:37;;;;;;;84.28;78.07;;;;;;;;;;5074246;28;20078;-63
2023/09/04 06:06:02;;;;;;;152.50;142.37;;;;;;;;;;5074507;28;20017;-63
2023/09/04 06:08:28;;;;;;;85.78;80.25;;;;;;;;;;5074300;28;20492;-63
2023/09/04 06:10:54;;;;;;;;;;;;;;;;;;5082560;28;20086;-63
2023/09/04 06:13:19;;;;;;;159.10;148.15;;;;;;;;;;5074478;28;19912;-63
2023/09/04 06:15:44;;;;;;;101.50;94.00;;;;;;;;;;5073136;28;20435;-61
2023/09/04 06:18:09;;;;;;;117.40;109.43;;;;;;;;;;5081269;28;20484;-61
2023/09/04 06:20:34;;;;;;;143.02;132.40;;;;;;;;;;5071392;28;20032;-62
2023/09/04 06:23:01;;;;;;;137.43;128.37;;;;;;;;;;5065911;28;20418;-62
2023/09/04 06:25:26;;;;;;;99.65;92.80;;;;;;;;;;5072739;28;20020;-61
2023/09/04 06:27:51;;;;;;;166.25;153.38;;;;;;;;;;5072665;28;20396;-61
2023/09/04 06:30:17;;;;;;;132.23;123.03;;;;;;;;;;5068537;28;20237;-61
2023/09/04 06:32:42;;;;;;;119.27;110.37;;;;;;;;;;5073775;28;20027;-62
2023/09/04 06:35:07;;;;;;;176.80;163.38;;;;;;;;;;5071220;28;20025;-61
2023/09/04 06:37:33;;;;;;;172.52;161.05;;;;;;;;;;5084945;28;20020;-61
2023/09/04 06:39:58;;;;;;;198.93;185.03;;;;;;;;;;5085463;28;20012;-61
2023/09/04 06:42:23;;;;;;;257.37;238.57;;;;;;;;;;5065338;28;20401;-61
2023/09/04 06:44:48;;;;;;;447.73;412.10;;;;;;;;;;5072636;28;20031;-61
2023/09/04 06:47:14;;;;;;;186.00;173.63;;;;;;;;;;5070571;28;20507;-61
2023/09/04 06:49:39;;;;;;;136.65;126.82;;;;;;;;;;5076273;28;20024;-62
2023/09/04 06:52:04;;;;;;;289.57;267.87;;;;;;;;;;5083144;28;20023;-61
2023/09/04 06:54:29;;;;;;;229.60;212.40;;;;;;;;;;5070628;28;20021;-61
2023/09/04 06:56:54;;;;;;;100.45;93.57;;;;;;;;;;5084384;28;20103;-62
2023/09/04 06:59:19;;;;;;;297.17;273.63;;;;;;;;;;5063773;28;20024;-62
2023/09/04 07:01:45;;;;;;;149.32;138.15;;;;;;;;;;5070554;28;20042;-61
2023/09/04 07:04:10;;;;;;;194.30;180.93;;;;;;;;;;5072682;28;20020;-62
2023/09/04 07:06:37;;;;;;;135.47;125.53;;;;;;;;;;5083757;28;20028;-61
2023/09/04 07:09:02;;;;;;;152.40;142.45;;;;;;;;;;5093678;28;20027;-62
2023/09/04 07:11:27;;;;;;;187.17;172.70;;;;;;;;;;5090454;28;20020;-62
2023/09/04 07:13:52;;;;;;;163.47;151.47;;;;;;;;;;5070330;28;20039;-61
2023/09/04 07:16:17;;;;;;;145.77;135.67;;;;;;;;;;5079525;28;20016;-62
2023/09/04 07:18:43;;;;;;;186.40;174.33;;;;;;;;;;5066527;28;20039;-61
2023/09/04 07:21:08;;;;;;;100.97;94.20;;;;;;;;;;5071184;28;20403;-62
2023/09/04 07:23:33;;;;;;;329.20;302.83;;;;;;;;;;5073143;28;20078;-62
2023/09/04 07:25:58;;;;;;;107.30;99.43;;;;;;;;;;5068825;28;20040;-62
2023/09/04 07:28:23;;;;;;;169.30;157.67;;;;;;;;;;5071850;28;20537;-63
2023/09/04 07:30:48;;;;;;;194.00;180.07;;;;;;;;;;5073101;28;20034;-62
2023/09/04 07:33:14;;;;;;;206.33;190.77;;;;;;;;;;5081960;28;20058;-62
2023/09/04 07:35:40;;;;;;;525.67;482.52;;;;;;;;;;5084537;28;20112;-62
2023/09/04 07:38:05;;;;;;;162.00;149.75;;;;;;;;;;5086807;28;20108;-61
2023/09/04 07:40:31;;;;;;;158.93;148.17;;;;;;;;;;5071350;28;20115;-62
2023/09/04 07:42:56;;;;;;;189.10;176.73;;;;;;;;;;5074663;28;20557;-62
2023/09/04 07:45:23;;;;;;;246.40;229.55;;;;;;;;;;5073018;28;20027;-62
2023/09/04 07:47:49;;;;;;;353.40;327.13;;;;;;;;;;5068442;28;20035;-63
2023/09/04 07:50:14;;;;;;;222.73;207.40;;;;;;;;;;5066009;28;20099;-62
2023/09/04 07:52:39;;;;;;;341.80;315.77;;;;;;;;;;5069870;28;20048;-63
2023/09/04 07:55:05;;;;;;;178.37;166.03;;;;;;;;;;5072207;28;20124;-63
2023/09/04 07:57:32;;;;;;;306.08;286.02;;;;;;;;;;5079513;28;20017;-62
2023/09/04 07:59:59;;;;;;;343.17;315.15;;;;;;;;;;5072016;28;20027;-63
2023/09/04 08:02:24;;;;;;;359.40;331.70;;;;;;;;;;5077397;28;20020;-63
2023/09/04 08:04:49;;;;;;;349.83;321.50;;;;;;;;;;5070001;28;20173;-63
2023/09/04 08:07:15;;;;;;;279.20;259.50;;;;;;;;;;5070957;28;20024;-63
2023/09/04 08:09:40;;;;;;;271.30;252.33;;;;;;;;;;5079663;28;20097;-61
2023/09/04 08:12:05;;;;;;;208.93;193.57;;;;;;;;;;5087161;28;20020;-63
2023/09/04 08:14:35;;;;;;;194.40;181.18;;;;;;;;;;5071696;28;20020;-61
2023/09/04 08:17:01;;;;;;;333.92;308.60;;;;;;;;;;5074424;28;20025;-63
2023/09/04 08:19:26;;;;;;;320.42;296.25;;;;;;;;;;5078660;28;20046;-63
2023/09/04 08:21:51;;;;;;;243.03;225.43;;;;;;;;;;5071511;28;20090;-64
2023/09/04 08:24:16;;;;;;;466.80;429.43;;;;;;;;;;5071373;28;20500;-63
2023/09/04 08:26:42;;;;;;;240.32;223.43;;;;;;;;;;5073578;28;20016;-61
2023/09/04 08:29:07;;;;;;;225.73;208.63;;;;;;;;;;5075507;28;20029;-61
2023/09/04 08:31:32;;;;;;;453.87;416.87;;;;;;;;;;5072049;28;20044;-62
2023/09/04 08:33:57;;;;;;;532.63;491.50;;;;;;;;;;5083239;28;20016;-62
2023/09/04 08:36:22;;;;;;;386.23;355.83;;;;;;;;;;5075596;28;20021;-63
2023/09/04 08:38:47;;;;;;;230.03;213.10;;;;;;;;;;5071448;28;20387;-62
2023/09/04 08:41:14;;;;;;;341.70;311.63;;;;;;;;;;5070677;28;20078;-63
2023/09/04 08:43:40;;;;;;;375.80;345.10;;;;;;;;;;5070952;28;20020;-61
2023/09/04 08:46:06;;;;;;;366.33;339.30;;;;;;;;;;5071534;28;20085;-62
2023/09/04 08:48:31;;;;;;;279.50;258.50;;;;;;;;;;5079678;28;20024;-63
2023/09/04 08:50:57;;;;;;;259.75;239.80;;;;;;;;;;5091646;28;20024;-63
2023/09/04 08:53:22;;;;;;;499.83;461.23;;;;;;;;;;5076055;28;20375;-62
2023/09/04 08:55:48;;;;;;;295.27;273.70;;;;;;;;;;5074172;28;20024;-63
2023/09/04 08:58:14;;;;;;;502.77;462.33;;;;;;;;;;5073187;28;20790;-63
2023/09/04 09:00:39;;;;;;;385.60;354.98;;;;;;;;;;5071349;28;20384;-61
2023/09/04 09:03:04;;;;;;;432.13;396.37;;;;;;;;;;5071130;28;20102;-61
2023/09/04 09:05:30;;;;;;;332.08;306.42;;;;;;;;;;5069543;28;20021;-60
2023/09/04 09:07:56;;;;;;;514.30;471.45;;;;;;;;;;5070266;28;20103;-60
2023/09/04 09:10:22;;;;;;;248.02;228.82;;;;;;;;;;5062586;28;20017;-63
2023/09/04 09:12:47;;;;;;;381.85;350.17;;;;;;;;;;5060339;28;20032;-63
2023/09/04 09:15:14;;;;;;;395.83;364.73;;;;;;;;;;5066273;28;20416;-63
2023/09/04 09:17:53;;;;;;;299.90;277.27;;;;;;;;;;5069277;28;20024;-64
2023/09/04 09:20:34;;;;;;;275.00;251.80;;;;;;;;;;5070887;28;20038;-62
2023/09/04 09:23:00;;;;;;;387.95;356.05;;;;;;;;;;5077098;28;20433;-63
2023/09/04 09:25:27;;;;;;;234.65;217.43;;;;;;;;;;5078874;28;20047;-61
2023/09/04 09:27:57;;;;;;;379.05;347.33;;;;;;;;;;5066906;28;20092;-63
2023/09/04 09:30:22;;;;;;;343.02;313.45;;;;;;;;;;5069841;28;20099;-63
2023/09/04 09:32:47;;;;;;;444.37;407.07;;;;;;;;;;5073664;28;20107;-63
2023/09/04 09:35:12;;;;;;;278.33;255.73;;;;;;;;;;5067327;28;20062;-63
2023/09/04 09:37:37;;;;;;;244.20;225.63;;;;;;;;;;5066783;28;20086;-63
2023/09/04 09:40:08;;;;;;;243.52;226.43;;;;;;;;;;5062683;28;20062;-63
2023/09/04 09:42:34;;;;;;;311.65;288.10;;;;;;;;;;5065756;28;20064;-63
2023/09/04 09:44:59;;;;;;;378.08;347.25;;;;;;;;;;5066918;28;20044;-62
2023/09/04 09:47:25;;;;;;;277.17;256.53;;;;;;;;;;5065708;28;20020;-63
2023/09/04 09:49:54;;;;;;;407.92;376.35;;;;;;;;;;5074482;28;20127;-62
2023/09/04 09:52:19;;;;;;;524.10;482.00;;;;;;;;;;5074023;28;20028;-64
2023/09/04 09:54:46;;;;;;;385.53;355.20;;;;;;;;;;5070406;28;20013;-62
2023/09/04 09:57:12;;;;;;;383.92;351.75;;;;;;;;;;5076111;28;20059;-62
2023/09/04 09:59:41;;;;;;;496.70;453.45;;;;;;;;;;5069660;28;20024;-62
2023/09/04 10:02:06;;;;;;;443.10;405.55;;;;;;;;;;5070115;28;20105;-62
2023/09/04 10:04:32;;;;;;;312.83;286.85;;;;;;;;;;5070294;28;20028;-62
2023/09/04 10:06:58;;;;;;;303.90;280.90;;;;;;;;;;5080355;28;20493;-63
2023/09/04 10:09:24;;;;;;;328.05;302.33;;;;;;;;;;5082318;28;20395;-62
2023/09/04 10:11:53;;;;;;;213.10;195.82;;;;;;;;;;5071470;28;20025;-62
2023/09/04 10:14:27;;;;;;;357.58;330.98;;;;;;;;;;5066062;28;20091;-62
2023/09/04 10:16:55;;;;;;;392.10;364.05;;;;;;;;;;5065838;28;20337;-61
2023/09/04 10:19:21;;;;;;;328.40;303.92;;;;;;;;;;5082006;28;20133;-61
2023/09/04 10:21:46;;;;;;;;;;;;;;;;;;5091018;28;20032;-62
2023/09/04 10:24:12;;;;;;;242.23;223.50;;;;;;;;;;5090208;28;19927;-62
2023/09/04 10:26:52;;;;;;;332.88;308.23;;;;;;;;;;5082808;28;20024;-61
2023/09/04 10:29:22;;;;;;;229.50;212.00;;;;;;;;;;5066279;28;20020;-61
2023/09/04 10:31:47;;;;;;;504.52;460.88;;;;;;;;;;5070379;28;20020;-63
2023/09/04 10:34:12;;;;;;;397.08;365.20;;;;;;;;;;5069981;28;20376;-62
2023/09/04 10:36:38;;;;;;;441.30;401.55;;;;;;;;;;5068997;28;20066;-63
2023/09/04 10:39:05;;;;;;;438.65;401.42;;;;;;;;;;5077693;28;20058;-62
2023/09/04 10:41:30;;;;;;;;;;;;;;;;;;5072595;28;20445;-63
2023/09/04 10:43:55;;;;;;;436.70;401.10;;;;;;;;;;5067296;28;20319;-63
2023/09/04 10:46:20;;;;;;;306.57;284.37;;;;;;;;;;5069458;28;20016;-62
2023/09/04 10:48:49;;;;;;;429.27;393.45;;;;;;;;;;5081056;28;20100;-61
2023/09/04 10:51:30;;;;;;;376.75;346.60;;;;;;;;;;5089332;28;20017;-62
2023/09/04 10:53:59;;;;;;;314.00;289.25;;;;;;;;;;5093694;28;20020;-61
2023/09/04 10:56:24;;;;;;;477.23;437.55;;;;;;;;;;5081960;28;20100;-60
2023/09/04 10:58:59;;;;;;;261.33;240.65;;;;;;;;;;5062534;28;20274;-62
2023/09/04 11:01:31;;;;;;;327.40;304.52;;;;;;;;;;5073077;28;20391;-61
2023/09/04 11:03:57;;;;;;;287.15;263.40;;;;;;;;;;5073107;28;20021;-61
2023/09/04 11:06:22;;;;;;;490.07;448.07;;;;;;;;;;5072815;28;20112;-62
2023/09/04 11:08:50;;;;;;;326.17;298.77;;;;;;;;;;5075904;28;20081;-61
2023/09/04 11:11:19;;;;;;;563.13;515.70;;;;;;;;;;5076157;28;20020;-61
2023/09/04 11:13:44;;;;;;;293.65;271.55;;;;;;;;;;5072974;28;20024;-61
2023/09/04 11:16:09;;;;;;;270.45;250.60;;;;;;;;;;5066904;28;20054;-60
2023/09/04 11:18:35;;;;;;;394.97;363.23;;;;;;;;;;5070213;28;20033;-62
2023/09/04 11:21:01;;;;;;;406.08;371.48;;;;;;;;;;5084749;28;20020;-63
2023/09/04 11:23:27;;;;;;;366.10;336.88;;;;;;;;;;5085168;28;20507;-62
2023/09/04 11:25:52;;;;;;;338.73;312.60;;;;;;;;;;5073080;28;20017;-61
2023/09/04 11:28:22;;;;;;;304.88;282.80;;;;;;;;;;5071886;28;20036;-61
2023/09/04 11:30:47;;;;;;;507.00;465.92;;;;;;;;;;5072803;28;20062;-61
2023/09/04 11:33:12;;;;;;;514.93;474.03;;;;;;;;;;5072535;28;20025;-62
2023/09/04 11:35:38;;;;;;;281.13;256.97;;;;;;;;;;5079892;28;20425;-62
2023/09/04 11:38:21;;;;;;;406.53;372.33;;;;;;;;;;5086254;28;20036;-61
2023/09/04 11:40:46;;;;;;;347.13;319.48;;;;;;;;;;5072883;28;20457;-62
2023/09/04 11:43:11;;;;;;;272.50;253.10;;;;;;;;;;5072616;28;20109;-62
2023/09/04 11:45:37;;;;;;;456.90;419.13;;;;;;;;;;5080317;28;20024;-62
2023/09/04 11:48:02;;;;;;;309.53;285.17;;;;;;;;;;5083203;28;20099;-61
2023/09/04 11:50:27;;;;;;;263.07;243.07;;;;;;;;;;5083974;28;20031;-61
2023/09/04 11:52:52;;;;;;;357.87;328.27;;;;;;;;;;5092676;28;20047;-61
2023/09/04 11:55:17;;;;;;;371.47;342.50;;;;;;;;;;5073466;28;20024;-61
2023/09/04 11:57:43;;;;;;;395.60;360.83;;;;;;;;;;5071356;28;20024;-61
2023/09/04 12:00:08;;;;;;;346.20;320.33;;;;;;;;;;5071309;28;20021;-60
2023/09/04 12:02:33;;;;;;;336.20;307.02;;;;;;;;;;5072452;28;20528;-60
2023/09/04 12:05:00;;;;;;;320.20;291.90;;;;;;;;;;5076926;28;20020;-60
2023/09/04 12:07:26;;;;;;;309.65;286.92;;;;;;;;;;5081497;28;20387;-61
2023/09/04 12:09:51;;;;;;;396.67;365.67;;;;;;;;;;5065242;28;20028;-62
2023/09/04 12:12:17;;;;;;;384.23;351.03;;;;;;;;;;5072143;28;20012;-62
2023/09/04 12:14:44;;;;;;;456.38;415.88;;;;;;;;;;5074494;28;20024;-63
2023/09/04 12:17:10;;;;;;;413.60;380.27;;;;;;;;;;5082880;28;20062;-63
2023/09/04 12:19:35;;;;;;;414.45;382.65;;;;;;;;;;5075424;28;20387;-63
2023/09/04 12:22:11;;;;;;;331.73;306.60;;;;;;;;;;5070820;28;20070;-62
2023/09/04 12:24:36;;;;;;;440.80;397.23;;;;;;;;;;5066923;28;20036;-62
2023/09/04 12:27:01;;;;;;;310.20;285.63;;;;;;;;;;5076877;28;20062;-61
2023/09/04 12:29:28;;;;;;;430.67;395.40;;;;;;;;;;5083722;28;20526;-63
2023/09/04 12:31:54;;;;;;;374.38;347.42;;;;;;;;;;5083103;28;20024;-62
2023/09/04 12:34:23;;;;;;;383.57;352.93;;;;;;;;;;5068976;28;20017;-63
2023/09/04 12:36:53;;;;;;;343.10;316.25;;;;;;;;;;5063047;28;20016;-63
2023/09/04 12:39:18;;;;;;;504.33;461.83;;;;;;;;;;5070625;28;20019;-60
2023/09/04 12:41:43;;;;;;;255.13;235.53;;;;;;;;;;5071172;28;20024;-62
2023/09/04 12:44:08;;;;;;;253.20;233.53;;;;;;;;;;5070481;28;20036;-63
2023/09/04 12:46:33;;;;;;;254.60;233.13;;;;;;;;;;5081335;28;20013;-63
2023/09/04 12:48:59;;;;;;;337.07;312.23;;;;;;;;;;5077336;28;20025;-62
2023/09/04 12:51:25;;;;;;;401.70;369.67;;;;;;;;;;5068237;28;20040;-63
2023/09/04 12:53:50;;;;;;;409.92;376.35;;;;;;;;;;5069030;28;20392;-62
2023/09/04 12:56:15;;;;;;;277.13;255.43;;;;;;;;;;5071137;28;20023;-63
2023/09/04 12:58:40;;;;;;;337.90;312.97;;;;;;;;;;5090206;28;20133;-62
2023/09/04 13:01:06;;;;;;;370.07;339.97;;;;;;;;;;5079015;28;20031;-62
2023/09/04 13:03:31;;;;;;;;;;;;;;;;;;5071542;28;20021;-62
2023/09/04 13:05:57;;;;;;;508.35;463.83;;;;;;;;;;5070871;28;19905;-62
2023/09/04 13:08:22;;;;;;;332.57;307.23;;;;;;;;;;5069205;28;20032;-62
2023/09/04 13:10:47;;;;;;;535.07;493.33;;;;;;;;;;5070668;28;20100;-62
2023/09/04 13:13:12;;;;;;;328.08;303.05;;;;;;;;;;5070781;28;20048;-62
2023/09/04 13:15:37;;;;;;;385.43;353.30;;;;;;;;;;5069231;28;20039;-62
2023/09/04 13:18:03;;;;;;;369.20;336.90;;;;;;;;;;5060122;28;20085;-63
2023/09/04 13:20:28;;;;;;;419.48;379.30;;;;;;;;;;5064267;28;20104;-62
2023/09/04 13:22:54;;;;;;;536.20;493.70;;;;;;;;;;5070749;28;20029;-63
2023/09/04 13:25:19;;;;;;;348.77;323.37;;;;;;;;;;5058447;28;20023;-63
2023/09/04 13:27:44;;;;;;;308.27;278.85;;;;;;;;;;5065343;28;20021;-63
2023/09/04 13:30:09;;;;;;;501.50;459.43;;;;;;;;;;5058750;28;20494;-63
2023/09/04 13:32:35;;;;;;;295.77;273.25;;;;;;;;;;5069661;28;20025;-62
2023/09/04 13:35:03;;;;;;;464.88;428.13;;;;;;;;;;5060067;28;20105;-62
2023/09/04 13:37:28;;;;;;;516.65;476.73;;;;;;;;;;5066914;28;20512;-63
2023/09/04 13:39:53;;;;;;;370.97;339.73;;;;;;;;;;5065960;28;20028;-62
2023/09/04 13:42:20;;;;;;;482.83;444.30;;;;;;;;;;5060687;28;20033;-63
2023/09/04 13:44:45;;;;;;;452.98;414.23;;;;;;;;;;5062010;28;20020;-60
2023/09/04 13:47:10;;;;;;;574.73;526.63;;;;;;;;;;5066159;28;20004;-63
2023/09/04 13:49:35;;;;;;;523.97;478.77;;;;;;;;;;5065624;28;20029;-62
2023/09/04 13:52:00;;;;;;;565.97;518.37;;;;;;;;;;5060283;28;20489;-61